sensor_id;sensor_type;location;lat;lon;timestamp;pressure;altitude;pressure_sealevel;temperature;humidity
5651;BME280;40241;52.684;9.758;2023-06-10T00:01:53;101471.47;;;20.73;39.86
5651;BME280;40241;52.684;9.758;2023-06-10T00:04:25;101465.13;;;20.73;39.94
5651;BME280;40241;52.684;9.758;2023-06-10T00:06:51;101458.91;;;20.67;39.91
5651;BME280;40241;52.684;9.758;2023-06-10T00:09:16;101464.28;;;20.65;40.04
5651;BME280;40241;52.684;9.758;2023-06-10T00:11:43;101465.91;;;20.60;40.29
5651;BME280;40241;52.684;9.758;2023-06-10T00:14:09;101470.47;;;20.50;40.42
5651;BME280;40241;52.684;9.758;2023-06-10T00:16:34;101462.09;;;20.50;40.39
5651;BME280;40241;52.684;9.758;2023-06-10T00:19:02;101465.19;;;20.47;40.45
5651;BME280;40241;52.684;9.758;2023-06-10T00:21:32;101472.97;;;20.41;40.65
5651;BME280;40241;52.684;9.758;2023-06-10T00:24:03;101463.75;;;20.33;40.70
5651;BME280;40241;52.684;9.758;2023-06-10T00:26:30;101469.88;;;20.31;40.90
5651;BME280;40241;52.684;9.758;2023-06-10T00:28:56;101469.66;;;20.29;41.00
5651;BME280;40241;52.684;9.758;2023-06-10T00:31:21;101473.75;;;20.28;41.08
5651;BME280;40241;52.684;9.758;2023-06-10T00:33:46;101476.88;;;20.25;40.97
5651;BME280;40241;52.684;9.758;2023-06-10T00:36:12;101475.16;;;20.22;41.21
5651;BME280;40241;52.684;9.758;2023-06-10T00:38:37;101476.75;;;20.17;41.07
5651;BME280;40241;52.684;9.758;2023-06-10T00:41:02;101474.09;;;20.11;41.36
5651;BME280;40241;52.684;9.758;2023-06-10T00:43:28;101482.78;;;20.08;41.44
5651;BME280;40241;52.684;9.758;2023-06-10T00:45:53;101485.34;;;20.06;41.58
5651;BME280;40241;52.684;9.758;2023-06-10T00:48:19;101476.75;;;20.04;41.49
5651;BME280;40241;52.684;9.758;2023-06-10T00:50:46;101482.69;;;20.00;41.63
5651;BME280;40241;52.684;9.758;2023-06-10T00:53:12;101475.59;;;19.99;41.73
5651;BME280;40241;52.684;9.758;2023-06-10T00:55:37;101483.97;;;19.99;41.86
5651;BME280;40241;52.684;9.758;2023-06-10T00:58:03;101476.34;;;20.00;41.95
5651;BME280;40241;52.684;9.758;2023-06-10T01:00:29;101481.16;;;19.99;41.99
5651;BME280;40241;52.684;9.758;2023-06-10T01:02:54;101494.38;;;19.99;41.99
5651;BME280;40241;52.684;9.758;2023-06-10T01:05:20;101486.22;;;20.01;42.07
5651;BME280;40241;52.684;9.758;2023-06-10T01:10:38;101496.75;;;19.95;42.63
5651;BME280;40241;52.684;9.758;2023-06-10T01:13:07;101491.50;;;19.91;42.37
5651;BME280;40241;52.684;9.758;2023-06-10T01:15:37;101491.78;;;19.88;42.48
5651;BME280;40241;52.684;9.758;2023-06-10T01:18:10;101496.97;;;19.84;43.11
5651;BME280;40241;52.684;9.758;2023-06-10T01:20:41;101499.66;;;19.76;42.66
5651;BME280;40241;52.684;9.758;2023-06-10T01:23:08;101509.84;;;19.74;42.48
5651;BME280;40241;52.684;9.758;2023-06-10T01:25:40;101490.09;;;19.72;42.89
5651;BME280;40241;52.684;9.758;2023-06-10T01:28:31;101487.28;;;19.59;43.82
5651;BME280;40241;52.684;9.758;2023-06-10T01:31:31;101496.91;;;19.44;44.11
5651;BME280;40241;52.684;9.758;2023-06-10T01:34:03;101502.16;;;19.35;43.26
5651;BME280;40241;52.684;9.758;2023-06-10T01:36:33;101507.25;;;19.31;43.40
5651;BME280;40241;52.684;9.758;2023-06-10T01:39:01;101509.94;;;19.23;43.44
5651;BME280;40241;52.684;9.758;2023-06-10T01:41:28;101512.72;;;19.23;43.68
5651;BME280;40241;52.684;9.758;2023-06-10T01:43:54;101518.38;;;19.18;43.65
5651;BME280;40241;52.684;9.758;2023-06-10T01:46:19;101534.16;;;19.15;43.75
5651;BME280;40241;52.684;9.758;2023-06-10T01:48:46;101511.59;;;19.13;43.80
5651;BME280;40241;52.684;9.758;2023-06-10T01:51:12;101514.41;;;19.13;44.07
5651;BME280;40241;52.684;9.758;2023-06-10T01:53:37;101513.72;;;19.07;44.32
5651;BME280;40241;52.684;9.758;2023-06-10T01:56:02;101517.59;;;19.04;44.21
5651;BME280;40241;52.684;9.758;2023-06-10T01:58:28;101514.81;;;19.04;44.26
5651;BME280;40241;52.684;9.758;2023-06-10T02:00:53;101515.09;;;19.01;44.42
5651;BME280;40241;52.684;9.758;2023-06-10T02:03:18;101516.69;;;18.96;44.36
5651;BME280;40241;52.684;9.758;2023-06-10T02:05:44;101513.69;;;18.94;44.42
5651;BME280;40241;52.684;9.758;2023-06-10T02:08:09;101519.41;;;18.83;44.27
5651;BME280;40241;52.684;9.758;2023-06-10T02:10:34;101519.06;;;18.74;44.80
5651;BME280;40241;52.684;9.758;2023-06-10T02:13:00;101520.44;;;18.67;44.72
5651;BME280;40241;52.684;9.758;2023-06-10T02:15:25;101518.47;;;18.62;44.93
5651;BME280;40241;52.684;9.758;2023-06-10T02:17:51;101528.63;;;18.59;45.09
5651;BME280;40241;52.684;9.758;2023-06-10T02:20:16;101527.63;;;18.57;45.31
5651;BME280;40241;52.684;9.758;2023-06-10T02:22:42;101518.53;;;18.56;45.17
5651;BME280;40241;52.684;9.758;2023-06-10T02:25:08;101522.91;;;18.52;45.23
5651;BME280;40241;52.684;9.758;2023-06-10T02:27:34;101528.06;;;18.42;45.23
5651;BME280;40241;52.684;9.758;2023-06-10T02:29:59;101523.38;;;18.32;45.36
5651;BME280;40241;52.684;9.758;2023-06-10T02:32:25;101539.69;;;18.22;45.59
5651;BME280;40241;52.684;9.758;2023-06-10T02:34:51;101544.59;;;18.16;45.81
5651;BME280;40241;52.684;9.758;2023-06-10T02:37:16;101549.69;;;18.12;45.94
5651;BME280;40241;52.684;9.758;2023-06-10T02:39:42;101549.16;;;18.14;45.93
5651;BME280;40241;52.684;9.758;2023-06-10T02:42:07;101548.94;;;18.12;45.86
5651;BME280;40241;52.684;9.758;2023-06-10T02:44:33;101549.28;;;18.03;46.05
5651;BME280;40241;52.684;9.758;2023-06-10T02:46:58;101553.94;;;17.94;46.13
5651;BME280;40241;52.684;9.758;2023-06-10T02:49:23;101558.81;;;17.88;46.24
5651;BME280;40241;52.684;9.758;2023-06-10T02:51:50;101556.53;;;17.87;46.41
5651;BME280;40241;52.684;9.758;2023-06-10T02:54:19;101559.31;;;17.87;46.35
5651;BME280;40241;52.684;9.758;2023-06-10T02:56:44;101556.13;;;17.77;46.58
5651;BME280;40241;52.684;9.758;2023-06-10T02:59:11;101565.03;;;17.70;46.67
5651;BME280;40241;52.684;9.758;2023-06-10T03:01:36;101561.81;;;17.66;46.75
5651;BME280;40241;52.684;9.758;2023-06-10T03:04:04;101577.28;;;17.62;46.76
5651;BME280;40241;52.684;9.758;2023-06-10T03:06:29;101565.94;;;17.54;46.98
5651;BME280;40241;52.684;9.758;2023-06-10T03:08:54;101562.16;;;17.52;46.88
5651;BME280;40241;52.684;9.758;2023-06-10T03:11:20;101559.41;;;17.46;47.08
5651;BME280;40241;52.684;9.758;2023-06-10T03:13:45;101556.38;;;17.44;47.21
5651;BME280;40241;52.684;9.758;2023-06-10T03:16:10;101566.00;;;17.43;47.17
5651;BME280;40241;52.684;9.758;2023-06-10T03:18:37;101567.03;;;17.40;47.25
5651;BME280;40241;52.684;9.758;2023-06-10T03:21:02;101572.88;;;17.37;47.28
5651;BME280;40241;52.684;9.758;2023-06-10T03:23:28;101569.13;;;17.34;47.39
5651;BME280;40241;52.684;9.758;2023-06-10T03:25:54;101577.47;;;17.34;47.58
5651;BME280;40241;52.684;9.758;2023-06-10T03:28:20;101579.50;;;17.34;47.60
5651;BME280;40241;52.684;9.758;2023-06-10T03:30:46;101572.94;;;17.31;47.78
5651;BME280;40241;52.684;9.758;2023-06-10T03:33:12;101586.78;;;17.37;47.92
5651;BME280;40241;52.684;9.758;2023-06-10T03:35:37;101581.47;;;17.39;47.95
5651;BME280;40241;52.684;9.758;2023-06-10T03:38:02;101578.94;;;17.41;48.24
5651;BME280;40241;52.684;9.758;2023-06-10T03:40:28;101591.78;;;17.44;48.20
5651;BME280;40241;52.684;9.758;2023-06-10T03:42:55;101579.13;;;17.48;48.34
5651;BME280;40241;52.684;9.758;2023-06-10T03:45:21;101570.25;;;17.50;48.43
5651;BME280;40241;52.684;9.758;2023-06-10T03:47:46;101574.06;;;17.52;48.49
5651;BME280;40241;52.684;9.758;2023-06-10T03:50:13;101567.69;;;17.57;48.47
5651;BME280;40241;52.684;9.758;2023-06-10T03:52:38;101566.16;;;17.56;48.64
5651;BME280;40241;52.684;9.758;2023-06-10T03:55:04;101575.00;;;17.60;48.80
5651;BME280;40241;52.684;9.758;2023-06-10T03:57:30;101587.13;;;17.63;48.71
5651;BME280;40241;52.684;9.758;2023-06-10T03:59:55;101564.34;;;17.64;48.94
5651;BME280;40241;52.684;9.758;2023-06-10T04:02:21;101567.84;;;17.70;48.82
5651;BME280;40241;52.684;9.758;2023-06-10T04:04:47;101565.50;;;17.74;48.87
5651;BME280;40241;52.684;9.758;2023-06-10T04:07:13;101568.53;;;17.76;48.91
5651;BME280;40241;52.684;9.758;2023-06-10T04:09:39;101568.28;;;17.74;49.07
5651;BME280;40241;52.684;9.758;2023-06-10T04:12:04;101564.72;;;17.79;48.83
5651;BME280;40241;52.684;9.758;2023-06-10T04:14:31;101561.63;;;17.83;49.02
5651;BME280;40241;52.684;9.758;2023-06-10T04:16:56;101563.38;;;17.86;48.96
5651;BME280;40241;52.684;9.758;2023-06-10T04:19:22;101567.16;;;17.88;48.99
5651;BME280;40241;52.684;9.758;2023-06-10T04:21:47;101565.63;;;17.87;49.21
5651;BME280;40241;52.684;9.758;2023-06-10T04:24:12;101571.66;;;17.91;49.25
5651;BME280;40241;52.684;9.758;2023-06-10T04:26:38;101575.16;;;17.97;49.20
5651;BME280;40241;52.684;9.758;2023-06-10T04:29:03;101581.94;;;18.02;49.13
5651;BME280;40241;52.684;9.758;2023-06-10T04:31:29;101579.91;;;18.03;49.52
5651;BME280;40241;52.684;9.758;2023-06-10T04:33:54;101576.63;;;18.04;49.38
5651;BME280;40241;52.684;9.758;2023-06-10T04:36:20;101577.81;;;18.09;49.38
5651;BME280;40241;52.684;9.758;2023-06-10T04:38:46;101580.56;;;18.14;49.29
5651;BME280;40241;52.684;9.758;2023-06-10T04:41:11;101588.34;;;18.21;49.20
5651;BME280;40241;52.684;9.758;2023-06-10T04:43:38;101590.91;;;18.19;49.14
5651;BME280;40241;52.684;9.758;2023-06-10T04:46:04;101598.25;;;18.17;49.25
5651;BME280;40241;52.684;9.758;2023-06-10T04:48:29;101591.19;;;18.16;49.32
5651;BME280;40241;52.684;9.758;2023-06-10T04:50:54;101594.19;;;18.18;49.32
5651;BME280;40241;52.684;9.758;2023-06-10T04:53:21;101603.59;;;18.15;49.37
5651;BME280;40241;52.684;9.758;2023-06-10T04:55:46;101606.56;;;18.22;49.16
5651;BME280;40241;52.684;9.758;2023-06-10T04:58:13;101594.16;;;18.23;49.54
5651;BME280;40241;52.684;9.758;2023-06-10T05:00:38;101592.69;;;18.17;49.35
5651;BME280;40241;52.684;9.758;2023-06-10T05:03:04;101589.22;;;18.11;49.48
5651;BME280;40241;52.684;9.758;2023-06-10T05:05:29;101591.34;;;17.99;49.64
5651;BME280;40241;52.684;9.758;2023-06-10T05:07:54;101591.47;;;17.88;49.93
5651;BME280;40241;52.684;9.758;2023-06-10T05:10:19;101588.38;;;17.91;49.81
5651;BME280;40241;52.684;9.758;2023-06-10T05:12:45;101591.59;;;18.01;49.80
5651;BME280;40241;52.684;9.758;2023-06-10T05:15:10;101592.34;;;18.02;49.86
5651;BME280;40241;52.684;9.758;2023-06-10T05:17:36;101587.00;;;18.04;49.92
5651;BME280;40241;52.684;9.758;2023-06-10T05:20:02;101597.38;;;18.03;49.92
5651;BME280;40241;52.684;9.758;2023-06-10T05:22:28;101595.13;;;18.02;49.92
5651;BME280;40241;52.684;9.758;2023-06-10T05:24:53;101587.00;;;18.04;49.91
5651;BME280;40241;52.684;9.758;2023-06-10T05:27:19;101591.28;;;18.05;49.94
5651;BME280;40241;52.684;9.758;2023-06-10T05:29:44;101595.53;;;18.11;49.90
5651;BME280;40241;52.684;9.758;2023-06-10T05:32:10;101594.50;;;18.14;49.84
5651;BME280;40241;52.684;9.758;2023-06-10T05:34:36;101595.03;;;18.13;49.82
5651;BME280;40241;52.684;9.758;2023-06-10T05:37:01;101600.75;;;18.20;50.00
5651;BME280;40241;52.684;9.758;2023-06-10T05:39:27;101605.28;;;18.23;49.82
5651;BME280;40241;52.684;9.758;2023-06-10T05:41:52;101597.16;;;18.25;50.06
5651;BME280;40241;52.684;9.758;2023-06-10T05:44:17;101604.47;;;18.28;49.95
5651;BME280;40241;52.684;9.758;2023-06-10T05:46:43;101601.50;;;18.21;49.93
5651;BME280;40241;52.684;9.758;2023-06-10T05:49:08;101596.69;;;18.21;50.13
5651;BME280;40241;52.684;9.758;2023-06-10T05:51:33;101607.72;;;18.32;50.00
5651;BME280;40241;52.684;9.758;2023-06-10T05:53:58;101602.53;;;18.42;49.94
5651;BME280;40241;52.684;9.758;2023-06-10T05:56:24;101593.84;;;18.51;49.87
5651;BME280;40241;52.684;9.758;2023-06-10T05:58:51;101592.50;;;18.57;49.89
5651;BME280;40241;52.684;9.758;2023-06-10T06:01:16;101590.25;;;18.56;49.90
5651;BME280;40241;52.684;9.758;2023-06-10T06:03:41;101590.03;;;18.54;50.01
5651;BME280;40241;52.684;9.758;2023-06-10T06:06:07;101584.50;;;18.48;50.03
5651;BME280;40241;52.684;9.758;2023-06-10T06:08:32;101584.50;;;18.48;50.00
5651;BME280;40241;52.684;9.758;2023-06-10T06:10:58;101587.69;;;18.58;50.16
5651;BME280;40241;52.684;9.758;2023-06-10T06:13:23;101589.81;;;18.70;49.99
5651;BME280;40241;52.684;9.758;2023-06-10T06:15:50;101587.09;;;18.84;50.01
5651;BME280;40241;52.684;9.758;2023-06-10T06:18:16;101595.09;;;18.93;49.71
5651;BME280;40241;52.684;9.758;2023-06-10T06:20:41;101586.72;;;18.93;49.76
5651;BME280;40241;52.684;9.758;2023-06-10T06:23:06;101586.41;;;18.96;49.58
5651;BME280;40241;52.684;9.758;2023-06-10T06:25:35;101588.81;;;19.05;49.60
5651;BME280;40241;52.684;9.758;2023-06-10T06:28:01;101593.59;;;19.10;49.63
5651;BME280;40241;52.684;9.758;2023-06-10T06:30:26;101593.41;;;19.21;49.65
5651;BME280;40241;52.684;9.758;2023-06-10T06:32:51;101583.75;;;19.22;49.53
5651;BME280;40241;52.684;9.758;2023-06-10T06:35:17;101584.59;;;19.17;49.40
5651;BME280;40241;52.684;9.758;2023-06-10T06:37:42;101588.34;;;19.20;49.46
5651;BME280;40241;52.684;9.758;2023-06-10T06:40:08;101588.81;;;19.24;49.61
5651;BME280;40241;52.684;9.758;2023-06-10T06:42:33;101588.94;;;19.31;49.46
5651;BME280;40241;52.684;9.758;2023-06-10T06:44:59;101596.50;;;19.36;49.58
5651;BME280;40241;52.684;9.758;2023-06-10T06:47:24;101596.50;;;19.36;49.71
5651;BME280;40241;52.684;9.758;2023-06-10T06:49:49;101592.34;;;19.43;49.41
5651;BME280;40241;52.684;9.758;2023-06-10T06:52:15;101595.50;;;19.34;49.58
5651;BME280;40241;52.684;9.758;2023-06-10T06:54:41;101598.84;;;19.32;49.68
5651;BME280;40241;52.684;9.758;2023-06-10T06:57:06;101606.63;;;19.39;49.44
5651;BME280;40241;52.684;9.758;2023-06-10T06:59:32;101601.03;;;19.39;49.47
5651;BME280;40241;52.684;9.758;2023-06-10T07:01:58;101597.72;;;19.41;49.64
5651;BME280;40241;52.684;9.758;2023-06-10T07:04:24;101593.34;;;19.46;49.29
5651;BME280;40241;52.684;9.758;2023-06-10T07:06:49;101593.00;;;19.49;49.35
5651;BME280;40241;52.684;9.758;2023-06-10T07:09:14;101591.84;;;19.58;49.33
5651;BME280;40241;52.684;9.758;2023-06-10T07:11:40;101590.81;;;19.61;49.25
5651;BME280;40241;52.684;9.758;2023-06-10T07:14:06;101590.91;;;19.68;49.25
5651;BME280;40241;52.684;9.758;2023-06-10T07:16:32;101594.91;;;19.73;49.20
5651;BME280;40241;52.684;9.758;2023-06-10T07:18:57;101596.44;;;19.87;49.12
5651;BME280;40241;52.684;9.758;2023-06-10T07:21:22;101595.91;;;19.88;49.31
5651;BME280;40241;52.684;9.758;2023-06-10T07:23:48;101599.47;;;19.89;49.18
5651;BME280;40241;52.684;9.758;2023-06-10T07:26:14;101603.97;;;19.92;49.21
5651;BME280;40241;52.684;9.758;2023-06-10T07:28:40;101593.47;;;19.98;49.29
5651;BME280;40241;52.684;9.758;2023-06-10T07:31:07;101598.63;;;20.07;49.18
5651;BME280;40241;52.684;9.758;2023-06-10T07:33:32;101601.84;;;20.11;49.04
5651;BME280;40241;52.684;9.758;2023-06-10T07:35:58;101597.44;;;20.15;49.23
5651;BME280;40241;52.684;9.758;2023-06-10T07:38:24;101589.63;;;20.27;48.96
5651;BME280;40241;52.684;9.758;2023-06-10T07:40:49;101598.75;;;20.41;48.89
5651;BME280;40241;52.684;9.758;2023-06-10T07:43:15;101589.59;;;20.53;48.72
5651;BME280;40241;52.684;9.758;2023-06-10T07:45:40;101591.66;;;20.53;48.44
5651;BME280;40241;52.684;9.758;2023-06-10T07:48:06;101588.84;;;20.66;48.54
5651;BME280;40241;52.684;9.758;2023-06-10T07:50:32;101577.84;;;20.81;48.36
5651;BME280;40241;52.684;9.758;2023-06-10T07:52:57;101586.00;;;20.92;48.16
5651;BME280;40241;52.684;9.758;2023-06-10T07:55:22;101592.09;;;21.04;47.92
5651;BME280;40241;52.684;9.758;2023-06-10T07:57:48;101587.03;;;21.15;47.80
5651;BME280;40241;52.684;9.758;2023-06-10T08:00:14;101584.78;;;21.14;47.80
5651;BME280;40241;52.684;9.758;2023-06-10T08:02:39;101590.13;;;21.25;48.01
5651;BME280;40241;52.684;9.758;2023-06-10T08:05:05;101588.75;;;21.39;47.56
5651;BME280;40241;52.684;9.758;2023-06-10T08:07:31;101586.22;;;21.48;47.36
5651;BME280;40241;52.684;9.758;2023-06-10T08:09:56;101608.50;;;21.54;47.43
5651;BME280;40241;52.684;9.758;2023-06-10T08:12:22;101594.78;;;21.63;47.23
5651;BME280;40241;52.684;9.758;2023-06-10T08:14:47;101590.53;;;21.70;47.23
5651;BME280;40241;52.684;9.758;2023-06-10T08:17:12;101593.19;;;21.76;47.14
5651;BME280;40241;52.684;9.758;2023-06-10T08:19:38;101590.03;;;21.79;47.07
5651;BME280;40241;52.684;9.758;2023-06-10T08:22:03;101592.19;;;21.86;46.93
5651;BME280;40241;52.684;9.758;2023-06-10T08:24:29;101590.00;;;21.92;46.87
5651;BME280;40241;52.684;9.758;2023-06-10T08:26:54;101586.28;;;21.97;47.01
5651;BME280;40241;52.684;9.758;2023-06-10T08:29:21;101585.44;;;22.10;46.91
5651;BME280;40241;52.684;9.758;2023-06-10T08:31:46;101578.78;;;22.20;46.64
5651;BME280;40241;52.684;9.758;2023-06-10T08:34:12;101589.28;;;22.27;46.53
5651;BME280;40241;52.684;9.758;2023-06-10T08:36:37;101583.50;;;22.33;46.26
5651;BME280;40241;52.684;9.758;2023-06-10T08:39:02;101585.44;;;22.46;46.20
5651;BME280;40241;52.684;9.758;2023-06-10T08:41:28;101582.41;;;22.64;46.17
5651;BME280;40241;52.684;9.758;2023-06-10T08:44:19;101580.59;;;22.82;45.71
5651;BME280;40241;52.684;9.758;2023-06-10T08:46:47;101579.69;;;22.94;45.47
5651;BME280;40241;52.684;9.758;2023-06-10T08:49:17;101583.25;;;23.02;45.45
5651;BME280;40241;52.684;9.758;2023-06-10T08:51:43;101576.53;;;23.13;45.38
5651;BME280;40241;52.684;9.758;2023-06-10T08:54:20;101580.13;;;23.29;44.86
5651;BME280;40241;52.684;9.758;2023-06-10T08:56:49;101573.84;;;23.43;45.00
5651;BME280;40241;52.684;9.758;2023-06-10T08:59:15;101571.97;;;23.53;44.66
5651;BME280;40241;52.684;9.758;2023-06-10T09:01:43;101573.06;;;23.73;44.40
5651;BME280;40241;52.684;9.758;2023-06-10T09:04:09;101576.63;;;23.89;44.11
5651;BME280;40241;52.684;9.758;2023-06-10T09:06:34;101572.69;;;23.92;44.15
5651;BME280;40241;52.684;9.758;2023-06-10T09:09:01;101568.75;;;24.02;43.81
5651;BME280;40241;52.684;9.758;2023-06-10T09:11:27;101572.31;;;24.18;43.82
5651;BME280;40241;52.684;9.758;2023-06-10T09:13:53;101570.41;;;24.28;43.70
5651;BME280;40241;52.684;9.758;2023-06-10T09:16:18;101572.81;;;24.39;43.25
5651;BME280;40241;52.684;9.758;2023-06-10T09:18:44;101561.31;;;24.52;43.21
5651;BME280;40241;52.684;9.758;2023-06-10T09:21:09;101557.13;;;24.68;42.83
5651;BME280;40241;52.684;9.758;2023-06-10T09:23:36;101561.00;;;24.88;42.84
5651;BME280;40241;52.684;9.758;2023-06-10T09:26:02;101555.66;;;24.99;42.56
5651;BME280;40241;52.684;9.758;2023-06-10T09:28:30;101558.63;;;25.09;42.43
5651;BME280;40241;52.684;9.758;2023-06-10T09:31:05;101550.47;;;25.20;41.62
5651;BME280;40241;52.684;9.758;2023-06-10T09:33:32;101553.97;;;25.28;41.64
5651;BME280;40241;52.684;9.758;2023-06-10T09:36:01;101547.09;;;25.47;41.57
5651;BME280;40241;52.684;9.758;2023-06-10T09:38:30;101545.91;;;25.74;41.26
5651;BME280;40241;52.684;9.758;2023-06-10T09:40:57;101549.41;;;25.99;40.89
5651;BME280;40241;52.684;9.758;2023-06-10T09:43:22;101551.06;;;26.10;40.54
5651;BME280;40241;52.684;9.758;2023-06-10T09:45:49;101551.38;;;26.31;40.32
5651;BME280;40241;52.684;9.758;2023-06-10T09:48:14;101544.38;;;26.49;39.66
5651;BME280;40241;52.684;9.758;2023-06-10T09:50:44;101540.69;;;26.56;39.50
5651;BME280;40241;52.684;9.758;2023-06-10T09:53:10;101541.03;;;26.78;39.57
5651;BME280;40241;52.684;9.758;2023-06-10T09:55:39;101544.72;;;26.97;38.76
5651;BME280;40241;52.684;9.758;2023-06-10T09:58:05;101548.59;;;27.02;39.15
5651;BME280;40241;52.684;9.758;2023-06-10T10:00:33;101546.41;;;27.10;39.01
5651;BME280;40241;52.684;9.758;2023-06-10T10:02:59;101546.75;;;27.23;38.68
5651;BME280;40241;52.684;9.758;2023-06-10T10:05:25;101546.22;;;27.34;38.75
5651;BME280;40241;52.684;9.758;2023-06-10T10:07:51;101547.81;;;27.28;38.69
5651;BME280;40241;52.684;9.758;2023-06-10T10:10:19;101545.63;;;27.36;38.45
5651;BME280;40241;52.684;9.758;2023-06-10T10:12:47;101541.81;;;27.51;38.08
5651;BME280;40241;52.684;9.758;2023-06-10T10:15:16;101540.34;;;27.59;37.44
5651;BME280;40241;52.684;9.758;2023-06-10T10:18:18;101540.94;;;27.58;36.76
5651;BME280;40241;52.684;9.758;2023-06-10T10:20:50;101540.53;;;27.71;36.46
5651;BME280;40241;52.684;9.758;2023-06-10T10:23:26;101538.59;;;27.83;36.92
5651;BME280;40241;52.684;9.758;2023-06-10T10:25:54;101535.34;;;27.96;37.42
5651;BME280;40241;52.684;9.758;2023-06-10T10:28:22;101527.44;;;27.94;37.03
5651;BME280;40241;52.684;9.758;2023-06-10T10:30:52;101531.78;;;27.95;37.00
5651;BME280;40241;52.684;9.758;2023-06-10T10:33:40;101525.38;;;27.95;35.83
5651;BME280;40241;52.684;9.758;2023-06-10T10:36:07;101530.75;;;28.00;37.17
5651;BME280;40241;52.684;9.758;2023-06-10T10:38:34;101525.25;;;28.12;37.09
5651;BME280;40241;52.684;9.758;2023-06-10T10:41:00;101529.88;;;28.36;36.86
5651;BME280;40241;52.684;9.758;2023-06-10T10:43:27;101530.28;;;28.52;36.49
5651;BME280;40241;52.684;9.758;2023-06-10T10:46:00;101522.69;;;28.64;36.01
5651;BME280;40241;52.684;9.758;2023-06-10T10:48:27;101526.88;;;28.63;36.16
5651;BME280;40241;52.684;9.758;2023-06-10T10:50:58;101521.91;;;28.73;36.08
5651;BME280;40241;52.684;9.758;2023-06-10T10:53:24;101516.69;;;28.79;36.09
5651;BME280;40241;52.684;9.758;2023-06-10T10:56:05;101523.50;;;28.85;35.58
5651;BME280;40241;52.684;9.758;2023-06-10T10:58:30;101518.53;;;29.05;36.18
5651;BME280;40241;52.684;9.758;2023-06-10T11:00:57;101518.00;;;29.28;35.98
5651;BME280;40241;52.684;9.758;2023-06-10T11:03:28;101519.72;;;29.42;35.13
5651;BME280;40241;52.684;9.758;2023-06-10T11:05:57;101522.25;;;29.48;35.24
5651;BME280;40241;52.684;9.758;2023-06-10T11:11:35;101523.25;;;29.74;34.75
5651;BME280;40241;52.684;9.758;2023-06-10T11:14:26;101523.63;;;29.89;34.75
5651;BME280;40241;52.684;9.758;2023-06-10T11:16:56;101520.78;;;29.89;34.68
5651;BME280;40241;52.684;9.758;2023-06-10T11:19:35;101516.13;;;29.94;34.42
5651;BME280;40241;52.684;9.758;2023-06-10T11:22:03;101507.13;;;29.97;35.12
5651;BME280;40241;52.684;9.758;2023-06-10T11:24:29;101508.81;;;30.12;35.12
5651;BME280;40241;52.684;9.758;2023-06-10T11:27:15;101505.41;;;30.25;33.84
5651;BME280;40241;52.684;9.758;2023-06-10T11:32:24;101507.00;;;30.61;33.95
5651;BME280;40241;52.684;9.758;2023-06-10T11:34:53;101504.91;;;30.61;33.97
5651;BME280;40241;52.684;9.758;2023-06-10T11:37:20;101493.91;;;30.67;34.22
5651;BME280;40241;52.684;9.758;2023-06-10T11:39:46;101501.59;;;30.76;33.77
5651;BME280;40241;52.684;9.758;2023-06-10T11:42:12;101493.44;;;30.71;33.78
5651;BME280;40241;52.684;9.758;2023-06-10T11:44:37;101489.53;;;30.87;33.94
5651;BME280;40241;52.684;9.758;2023-06-10T11:47:03;101491.13;;;31.02;33.77
5651;BME280;40241;52.684;9.758;2023-06-10T11:49:29;101493.97;;;31.02;33.43
5651;BME280;40241;52.684;9.758;2023-06-10T11:51:54;101488.31;;;31.14;33.38
5651;BME280;40241;52.684;9.758;2023-06-10T11:54:20;101482.97;;;31.20;33.42
5651;BME280;40241;52.684;9.758;2023-06-10T11:56:47;101485.56;;;31.27;33.34
5651;BME280;40241;52.684;9.758;2023-06-10T11:59:13;101476.56;;;31.42;33.26
5651;BME280;40241;52.684;9.758;2023-06-10T12:01:45;101473.19;;;31.57;32.45
5651;BME280;40241;52.684;9.758;2023-06-10T12:04:15;101471.78;;;31.70;32.90
5651;BME280;40241;52.684;9.758;2023-06-10T12:09:19;101479.88;;;31.99;31.07
5651;BME280;40241;52.684;9.758;2023-06-10T12:11:45;101482.34;;;32.04;32.19
5651;BME280;40241;52.684;9.758;2023-06-10T12:14:11;101471.06;;;32.06;32.07
5651;BME280;40241;52.684;9.758;2023-06-10T12:16:36;101469.28;;;32.13;32.33
5651;BME280;40241;52.684;9.758;2023-06-10T12:19:03;101470.81;;;32.27;31.94
5651;BME280;40241;52.684;9.758;2023-06-10T12:21:29;101463.78;;;32.28;31.84
5651;BME280;40241;52.684;9.758;2023-06-10T12:24:03;101473.38;;;32.35;31.53
5651;BME280;40241;52.684;9.758;2023-06-10T12:26:42;101456.00;;;32.42;30.60
5651;BME280;40241;52.684;9.758;2023-06-10T12:29:22;101461.47;;;32.38;31.10
5651;BME280;40241;52.684;9.758;2023-06-10T12:34:18;101454.28;;;32.63;31.58
5651;BME280;40241;52.684;9.758;2023-06-10T12:36:50;101442.25;;;32.78;30.94
5651;BME280;40241;52.684;9.758;2023-06-10T12:39:15;101452.94;;;32.91;31.19
5651;BME280;40241;52.684;9.758;2023-06-10T12:41:47;101457.13;;;32.90;30.74
5651;BME280;40241;52.684;9.758;2023-06-10T12:44:13;101437.94;;;32.90;31.07
5651;BME280;40241;52.684;9.758;2023-06-10T12:46:39;101433.16;;;32.81;31.04
5651;BME280;40241;52.684;9.758;2023-06-10T12:49:04;101427.25;;;32.77;31.19
5651;BME280;40241;52.684;9.758;2023-06-10T12:51:30;101429.69;;;32.83;30.88
5651;BME280;40241;52.684;9.758;2023-06-10T12:53:55;101426.97;;;32.85;30.75
5651;BME280;40241;52.684;9.758;2023-06-10T12:56:20;101436.44;;;32.76;30.66
5651;BME280;40241;52.684;9.758;2023-06-10T12:58:47;101431.06;;;32.82;30.53
5651;BME280;40241;52.684;9.758;2023-06-10T13:01:13;101433.16;;;32.81;30.50
5651;BME280;40241;52.684;9.758;2023-06-10T13:03:38;101428.84;;;32.80;30.28
5651;BME280;40241;52.684;9.758;2023-06-10T13:06:05;101434.13;;;32.86;30.41
5651;BME280;40241;52.684;9.758;2023-06-10T13:08:31;101419.56;;;32.93;30.21
5651;BME280;40241;52.684;9.758;2023-06-10T13:10:57;101427.09;;;33.00;29.89
5651;BME280;40241;52.684;9.758;2023-06-10T13:13:23;101428.66;;;33.03;29.97